createdAt,value
2022-08-03T00:01:40.265Z,35.75
2022-08-03T00:04:42.766Z,34.50
2022-08-03T00:07:44.965Z,33.00
2022-08-03T00:10:47.792Z,32.75
2022-08-03T00:13:50.134Z,34.25
2022-08-03T00:16:52.529Z,26.75
2022-08-03T00:19:54.714Z,33.50
2022-08-03T00:22:57.031Z,35.00
2022-08-03T00:26:00.220Z,35.00
2022-08-03T00:29:02.676Z,33.00
2022-08-03T00:32:05.130Z,28.50
2022-08-03T00:35:09.130Z,35.25
2022-08-03T00:38:12.632Z,34.25
2022-08-03T00:41:15.653Z,34.00
2022-08-03T00:44:17.949Z,34.00
2022-08-03T00:47:20.333Z,33.50
2022-08-03T00:50:24.241Z,36.25
2022-08-03T00:53:27.741Z,34.50
2022-08-03T00:56:30.064Z,31.75
2022-08-03T00:59:32.649Z,33.50
2022-08-03T01:02:35.737Z,33.00
2022-08-03T01:05:56.499Z,32.25
2022-08-03T01:09:17.273Z,32.00
2022-08-03T01:12:33.246Z,31.75
2022-08-03T01:15:58.804Z,35.75
2022-08-03T01:19:22.782Z,33.00
2022-08-03T01:22:50.146Z,32.75
2022-08-03T01:26:28.195Z,31.50
2022-08-03T01:29:55.019Z,29.25
2022-08-03T01:33:17.763Z,27.25
2022-08-03T01:36:23.479Z,30.50
2022-08-03T01:39:26.632Z,29.50
2022-08-03T01:42:29.769Z,32.25
2022-08-03T01:45:34.246Z,33.00
2022-08-03T01:48:38.789Z,37.00
2022-08-03T01:52:03.549Z,32.50
2022-08-03T01:55:06.435Z,33.25
2022-08-03T01:58:08.885Z,33.00
2022-08-03T02:01:12.047Z,30.00
2022-08-03T02:04:17.833Z,34.00
2022-08-03T02:07:20.199Z,33.25
2022-08-03T02:10:35.136Z,34.50
2022-08-03T02:13:38.533Z,31.25
2022-08-03T02:16:41.077Z,34.00
2022-08-03T02:19:43.851Z,31.25
2022-08-03T02:22:46.854Z,35.25
2022-08-03T02:25:53.245Z,30.50
2022-08-03T02:28:58.113Z,32.25
2022-08-03T02:32:04.517Z,30.00
2022-08-03T02:35:11.423Z,36.00
2022-08-03T02:38:14.364Z,33.25
2022-08-03T02:41:18.535Z,32.75
2022-08-03T02:44:26.643Z,30.75
2022-08-03T02:47:53.863Z,32.50
2022-08-03T02:50:53.544Z,33.25
2022-08-03T02:53:57.002Z,33.00
2022-08-03T02:56:59.858Z,34.00
2022-08-03T03:00:02.369Z,31.50
2022-08-03T03:03:04.746Z,34.75
2022-08-03T03:06:08.265Z,31.50
2022-08-03T03:09:11.162Z,31.75
2022-08-03T03:12:14.571Z,30.00
2022-08-03T03:15:16.812Z,33.25
2022-08-03T03:18:22.785Z,31.50
2022-08-03T03:21:25.418Z,34.00
2022-08-03T03:24:31.233Z,34.00
2022-08-03T03:27:34.115Z,31.00
2022-08-03T03:30:36.618Z,34.25
2022-08-03T03:33:39.180Z,32.50
2022-08-03T03:36:41.760Z,33.50
2022-08-03T03:39:44.219Z,32.75
2022-08-03T03:42:46.787Z,33.25
2022-08-03T03:45:49.527Z,33.50
2022-08-03T03:48:52.065Z,34.00
2022-08-03T03:51:55.608Z,33.75
2022-08-03T03:55:01.028Z,33.75
2022-08-03T03:58:04.213Z,33.50
2022-08-03T04:01:06.730Z,34.25
2022-08-03T04:04:27.741Z,35.00
2022-08-03T04:07:55.552Z,34.75
2022-08-03T04:11:31.705Z,34.00
2022-08-03T04:14:35.439Z,34.75
2022-08-03T04:17:37.546Z,36.00
2022-08-03T04:20:41.020Z,35.00
2022-08-03T04:23:45.228Z,35.00
2022-08-03T04:26:52.723Z,35.75
2022-08-03T04:29:57.502Z,35.00
2022-08-03T04:33:01.279Z,33.00
2022-08-03T04:36:07.283Z,34.25
2022-08-03T04:39:20.347Z,34.00
2022-08-03T04:42:24.868Z,32.50
2022-08-03T04:45:28.227Z,35.50
2022-08-03T04:48:30.468Z,35.25
2022-08-03T04:51:34.882Z,33.25
2022-08-03T04:54:50.018Z,36.00
2022-08-03T04:57:53.362Z,34.75
2022-08-03T05:00:55.630Z,33.50
2022-08-03T05:03:58.023Z,33.50
2022-08-03T05:07:00.243Z,32.00
2022-08-03T05:10:18.129Z,35.00
2022-08-03T05:13:20.910Z,32.00
2022-08-03T05:16:23.623Z,33.25
2022-08-03T05:19:25.782Z,32.75
2022-08-03T05:22:28.131Z,32.25
2022-08-03T05:25:30.683Z,32.50
2022-08-03T05:28:33.214Z,34.00
2022-08-03T05:31:35.551Z,32.25
2022-08-03T05:34:38.183Z,32.75
2022-08-03T05:37:40.351Z,32.25
2022-08-03T05:41:21.060Z,33.50
2022-08-03T05:44:20.345Z,36.00
2022-08-03T05:47:22.796Z,35.00
2022-08-03T05:50:25.161Z,30.75
2022-08-03T05:53:27.627Z,34.00
2022-08-03T05:56:30.006Z,31.00
2022-08-03T05:59:39.475Z,35.25
2022-08-03T06:02:54.729Z,32.75
2022-08-03T06:06:00.370Z,31.50
2022-08-03T06:09:02.930Z,31.75
2022-08-03T06:12:05.638Z,32.00
2022-08-03T06:15:11.550Z,31.75
2022-08-03T06:18:14.477Z,31.00
2022-08-03T06:21:16.674Z,29.00
2022-08-03T06:24:19.161Z,31.75
2022-08-03T06:27:36.315Z,32.00
2022-08-03T06:30:40.560Z,34.25
2022-08-03T06:34:30.882Z,31.75
2022-08-03T06:37:05.358Z,34.00
2022-08-03T06:40:08.105Z,31.00
2022-08-03T06:43:12.506Z,34.25
2022-08-03T06:46:15.274Z,37.50
2022-08-03T06:49:17.983Z,38.25
2022-08-03T06:52:37.936Z,37.00
2022-08-03T06:55:42.513Z,34.00
2022-08-03T06:58:44.775Z,35.75
2022-08-03T07:01:47.268Z,34.00
2022-08-03T07:04:49.766Z,33.00
2022-08-03T07:07:56.720Z,35.50
2022-08-03T07:10:58.841Z,31.50
2022-08-03T07:14:01.307Z,33.25
2022-08-03T07:17:04.622Z,33.00
2022-08-03T07:20:15.292Z,34.50
2022-08-03T07:23:19.104Z,31.00
2022-08-03T07:26:22.006Z,33.00
2022-08-03T07:29:24.151Z,33.00
2022-08-03T07:32:27.167Z,33.25
2022-08-03T07:35:29.403Z,32.25
2022-08-03T07:38:31.894Z,32.25
2022-08-03T07:41:34.181Z,30.00
2022-08-03T07:44:36.920Z,26.33
2022-08-03T07:47:39.205Z,28.00
2022-08-03T07:50:41.679Z,27.67
2022-08-03T07:53:47.385Z,21.00
2022-08-03T07:56:50.405Z,19.33
2022-08-03T08:00:01.820Z,26.33
2022-08-03T08:03:14.549Z,20.33
2022-08-03T08:06:17.986Z,14.00
2022-08-03T08:09:20.709Z,17.00
2022-08-03T08:12:22.931Z,15.00
2022-08-03T08:15:25.555Z,13.67
2022-08-03T08:18:29.772Z,16.67
2022-08-03T08:21:52.921Z,13.00
2022-08-03T08:24:54.613Z,14.00
2022-08-03T08:28:29.587Z,15.00
2022-08-03T08:31:20.855Z,13.00
2022-08-03T08:34:23.622Z,12.25
2022-08-03T08:37:25.949Z,12.25
2022-08-03T08:40:28.992Z,11.25
2022-08-03T08:43:31.533Z,5.25
2022-08-03T08:46:34.442Z,5.25
2022-08-03T08:49:39.166Z,7.00
2022-08-03T08:52:42.377Z,6.00
2022-08-03T08:55:57.955Z,7.00
2022-08-03T08:59:03.085Z,6.00
2022-08-03T09:02:06.137Z,9.00
2022-08-03T09:05:16.983Z,9.00
2022-08-03T09:08:19.477Z,9.00
2022-08-03T09:12:00.819Z,8.75
2022-08-03T09:15:07.614Z,10.25
2022-08-03T09:18:09.765Z,8.25
2022-08-03T09:21:31.574Z,8.75
2022-08-03T09:24:41.249Z,9.20
2022-08-03T09:27:45.321Z,7.80
2022-08-03T09:30:59.652Z,8.40
2022-08-03T09:34:05.779Z,7.40
2022-08-03T09:37:18.482Z,6.80
2022-08-03T09:40:41.368Z,6.00
2022-08-03T09:43:47.577Z,7.00
2022-08-03T09:46:52.055Z,6.40
2022-08-03T09:50:02.264Z,6.40
2022-08-03T09:53:04.766Z,7.80
2022-08-03T09:56:36.006Z,6.00
2022-08-03T09:59:31.416Z,7.00
2022-08-03T10:02:34.222Z,7.00
2022-08-03T10:05:36.977Z,6.20
2022-08-03T10:08:39.607Z,5.20
2022-08-03T10:11:43.646Z,6.60
2022-08-03T10:14:46.770Z,5.80
2022-08-03T10:17:48.981Z,6.00
2022-08-03T10:20:57.296Z,6.80
2022-08-03T10:24:00.060Z,6.40
2022-08-03T10:27:07.115Z,5.60
2022-08-03T10:30:11.506Z,6.80
2022-08-03T10:33:51.590Z,6.20
2022-08-03T10:36:53.745Z,5.00
2022-08-03T10:39:58.448Z,6.20
2022-08-03T10:43:09.179Z,5.40
2022-08-03T10:46:11.861Z,5.60
2022-08-03T10:49:33.711Z,7.20
2022-08-03T10:52:57.133Z,5.20
2022-08-03T10:56:25.408Z,8.20
2022-08-03T11:00:00.219Z,7.20
2022-08-03T11:03:16.193Z,6.40
2022-08-03T11:06:24.726Z,7.00
2022-08-03T11:09:44.537Z,7.20
2022-08-03T11:12:47.719Z,6.60
2022-08-03T11:15:53.158Z,5.40
2022-08-03T11:19:09.136Z,9.00
2022-08-03T11:22:11.793Z,8.00
2022-08-03T11:25:53.779Z,7.00
2022-08-03T11:28:40.357Z,6.20
2022-08-03T11:31:51.501Z,8.00
2022-08-03T11:35:36.714Z,8.60
2022-08-03T11:39:13.220Z,8.40
2022-08-03T11:42:22.382Z,10.00
2022-08-03T11:45:25.138Z,5.40
2022-08-03T11:48:34.556Z,8.40
2022-08-03T11:51:37.909Z,7.00
2022-08-03T11:54:41.012Z,7.60
2022-08-03T11:59:18.698Z,8.80
2022-08-03T12:01:07.940Z,7.20
2022-08-03T12:04:11.742Z,8.40
2022-08-03T12:07:13.995Z,9.00
2022-08-03T12:10:37.475Z,7.60
2022-08-03T12:14:43.877Z,7.20
2022-08-03T12:17:06.922Z,9.60
2022-08-03T12:20:34.783Z,9.00
2022-08-03T12:23:39.389Z,8.40
2022-08-03T12:26:58.988Z,8.60
2022-08-03T12:30:03.618Z,7.60
2022-08-03T12:33:34.805Z,7.00
2022-08-03T12:36:39.199Z,8.60
2022-08-03T12:40:02.566Z,7.80
2022-08-03T12:43:12.499Z,7.00
2022-08-03T12:46:16.609Z,9.60
2022-08-03T12:49:20.281Z,11.00
2022-08-03T12:52:23.692Z,7.00
2022-08-03T12:55:56.279Z,9.60
2022-08-03T12:58:58.915Z,9.00
2022-08-03T13:02:02.017Z,7.60
2022-08-03T13:05:14.321Z,9.00
2022-08-03T13:08:21.333Z,6.75
2022-08-03T13:11:55.948Z,9.25
2022-08-03T13:14:50.896Z,9.40
2022-08-03T13:17:53.176Z,10.00
2022-08-03T13:20:55.697Z,7.75
2022-08-03T13:23:58.033Z,9.50
2022-08-03T13:27:22.097Z,8.75
2022-08-03T13:30:29.789Z,9.50
2022-08-03T13:33:33.747Z,8.60
2022-08-03T13:36:59.391Z,9.00
2022-08-03T13:40:02.717Z,8.75
2022-08-03T13:43:05.586Z,10.25
2022-08-03T13:46:08.246Z,9.00
2022-08-03T13:49:10.627Z,10.25
2022-08-03T13:52:13.254Z,11.50
2022-08-03T13:55:15.629Z,8.50
2022-08-03T13:58:18.137Z,11.50
2022-08-03T14:01:53.692Z,12.00
2022-08-03T14:04:43.057Z,9.20
2022-08-03T14:07:45.449Z,11.00
2022-08-03T14:10:48.103Z,11.00
2022-08-03T14:13:50.517Z,9.20
2022-08-03T14:16:53.236Z,7.20
2022-08-03T14:19:59.123Z,8.40
2022-08-03T14:23:03.007Z,9.40
2022-08-03T14:26:06.727Z,10.00
2022-08-03T14:29:09.212Z,12.00
2022-08-03T14:32:13.499Z,9.50
2022-08-03T14:35:16.160Z,10.00
2022-08-03T14:38:19.313Z,9.50
2022-08-03T14:41:21.976Z,6.00
2022-08-03T14:44:24.354Z,10.50
2022-08-03T14:47:27.144Z,10.50
2022-08-03T14:50:42.898Z,10.25
2022-08-03T14:53:47.193Z,9.25
2022-08-03T14:56:49.568Z,10.00
2022-08-03T14:59:56.771Z,14.00
2022-08-03T15:02:59.797Z,12.50
2022-08-03T15:06:02.392Z,11.75
2022-08-03T15:09:21.388Z,10.25
2022-08-03T15:12:26.213Z,11.50
2022-08-03T15:15:28.490Z,10.25
2022-08-03T15:18:31.017Z,11.00
2022-08-03T15:21:46.833Z,11.50
2022-08-03T15:24:50.516Z,9.50
2022-08-03T15:28:03.425Z,12.75
2022-08-03T15:31:07.488Z,10.25
2022-08-03T15:34:11.880Z,11.00
2022-08-03T15:37:16.320Z,10.75
2022-08-03T15:40:19.509Z,10.25
2022-08-03T15:43:23.266Z,12.25
2022-08-03T15:46:29.946Z,9.50
2022-08-03T15:49:32.878Z,9.75
2022-08-03T15:52:36.760Z,9.00
2022-08-03T15:55:40.511Z,10.00
2022-08-03T15:59:04.068Z,10.00
2022-08-03T16:02:05.583Z,11.75
2022-08-03T16:05:08.554Z,10.00
2022-08-03T16:08:13.860Z,9.50
2022-08-03T16:11:16.552Z,9.75
2022-08-03T16:14:32.020Z,10.75
2022-08-03T16:17:39.012Z,8.00
2022-08-03T16:20:41.791Z,11.00
2022-08-03T16:23:47.347Z,10.00
2022-08-03T16:26:50.067Z,10.50
2022-08-03T16:29:52.517Z,9.50
2022-08-03T16:32:54.997Z,10.75
2022-08-03T16:35:57.342Z,8.50
2022-08-03T16:38:59.934Z,11.00
2022-08-03T16:42:02.501Z,13.00
2022-08-03T16:45:06.756Z,13.00
2022-08-03T16:48:09.244Z,9.50
2022-08-03T16:51:11.797Z,11.25
2022-08-03T16:54:15.583Z,15.00
2022-08-03T16:57:56.028Z,10.75
2022-08-03T17:00:46.420Z,11.25
2022-08-03T17:04:01.252Z,12.00
2022-08-03T17:07:05.239Z,12.50
2022-08-03T17:10:08.599Z,12.00
2022-08-03T17:13:11.104Z,11.00
2022-08-03T17:16:15.326Z,11.00
2022-08-03T17:19:18.468Z,12.50
2022-08-03T17:22:25.614Z,12.00
2022-08-03T17:25:39.678Z,11.50
2022-08-03T17:28:57.353Z,12.25
2022-08-03T17:32:06.507Z,12.00
2022-08-03T17:35:12.731Z,12.75
2022-08-03T17:38:22.416Z,13.00
2022-08-03T17:41:26.401Z,12.00
2022-08-03T17:44:41.273Z,11.00
2022-08-03T17:47:57.112Z,13.00
2022-08-03T17:51:04.356Z,10.33
2022-08-03T17:54:30.639Z,14.67
2022-08-03T17:58:02.721Z,16.00
2022-08-03T18:02:02.054Z,12.33
2022-08-03T18:04:57.362Z,14.00
2022-08-03T18:08:06.937Z,14.67
2022-08-03T18:11:16.288Z,15.00
2022-08-03T18:14:32.529Z,14.00
2022-08-03T18:17:55.108Z,15.00
2022-08-03T18:21:06.475Z,15.00
2022-08-03T18:24:11.462Z,13.33
2022-08-03T18:27:15.854Z,16.00
2022-08-03T18:30:18.197Z,17.00
2022-08-03T18:34:17.132Z,15.00
2022-08-03T18:36:49.597Z,15.00
2022-08-03T18:39:55.269Z,15.33
2022-08-03T18:43:08.867Z,14.67
2022-08-03T18:46:30.225Z,16.33
2022-08-03T18:49:36.084Z,15.33
2022-08-03T18:52:57.830Z,18.00
2022-08-03T18:56:04.124Z,18.00
2022-08-03T18:59:30.124Z,17.67
2022-08-03T19:02:50.085Z,16.33
2022-08-03T19:06:17.489Z,16.67
2022-08-03T19:09:41.168Z,16.33
2022-08-03T19:12:56.004Z,19.00
2022-08-03T19:16:08.809Z,18.50
2022-08-03T19:19:22.745Z,19.33
2022-08-03T19:22:33.066Z,20.67
2022-08-03T19:25:42.765Z,18.00
2022-08-03T19:28:55.143Z,18.67
2022-08-03T19:32:07.848Z,19.00
2022-08-03T19:35:13.481Z,18.67
2022-08-03T19:38:31.962Z,21.33
2022-08-03T19:41:41.987Z,22.00
2022-08-03T19:44:50.997Z,21.00
2022-08-03T19:48:08.045Z,22.00
2022-08-03T19:51:12.769Z,19.33
2022-08-03T19:54:29.429Z,21.75
2022-08-03T19:57:34.898Z,21.67
2022-08-03T20:00:40.095Z,22.25
2022-08-03T20:03:52.737Z,21.50
2022-08-03T20:07:04.719Z,20.25
2022-08-03T20:10:17.805Z,22.50
2022-08-03T20:13:28.343Z,26.00
2022-08-03T20:16:31.665Z,25.00
2022-08-03T20:19:35.166Z,21.50
2022-08-03T20:22:46.173Z,22.50
2022-08-03T20:29:17.912Z,26.50
2022-08-03T20:32:24.698Z,21.75
2022-08-03T20:35:32.121Z,22.00
2022-08-03T20:38:35.080Z,22.00
2022-08-03T20:41:46.704Z,25.25
2022-08-03T20:45:04.264Z,20.00
2022-08-03T20:48:12.884Z,21.25
2022-08-03T20:51:49.129Z,23.75
2022-08-03T20:54:44.924Z,26.25
2022-08-03T20:57:51.830Z,25.75
2022-08-03T21:00:56.974Z,23.25
2022-08-03T21:03:59.246Z,26.00
2022-08-03T21:07:16.651Z,24.00
2022-08-03T21:10:21.174Z,22.25
2022-08-03T21:13:06.880Z,21.75
2022-08-03T21:13:56.620Z,24.75
2022-08-03T21:16:59.023Z,20.00
2022-08-03T21:20:03.287Z,24.00
2022-08-03T21:23:10.058Z,23.25
2022-08-03T21:26:34.045Z,26.75
2022-08-03T21:29:53.319Z,22.25
2022-08-03T21:32:58.146Z,26.00
2022-08-03T21:36:02.081Z,22.00
2022-08-03T21:39:09.229Z,24.50
2022-08-03T21:42:12.990Z,26.25
2022-08-03T21:45:17.653Z,26.75
2022-08-03T21:48:21.774Z,23.00
2022-08-03T21:51:26.013Z,24.50
2022-08-03T21:54:36.834Z,22.75
2022-08-03T21:57:44.736Z,25.50
2022-08-03T22:00:47.577Z,27.00
2022-08-03T22:03:54.039Z,28.75
2022-08-03T22:06:56.863Z,27.00
2022-08-03T22:10:01.146Z,24.25
2022-08-03T22:13:03.686Z,27.75
2022-08-03T22:16:07.060Z,30.75
2022-08-03T22:19:09.341Z,31.00
2022-08-03T22:22:13.983Z,25.00
2022-08-03T22:25:16.646Z,27.00
2022-08-03T22:28:20.368Z,23.75
2022-08-03T22:31:57.220Z,26.25
2022-08-03T22:34:46.897Z,29.25
2022-08-03T22:37:49.968Z,26.75
2022-08-03T22:40:55.177Z,25.25
2022-08-03T22:43:58.901Z,26.00
2022-08-03T22:47:07.948Z,30.25
2022-08-03T22:50:32.429Z,28.00
2022-08-03T22:53:36.163Z,29.00
2022-08-03T22:56:39.073Z,26.00
2022-08-03T22:59:42.128Z,28.25
2022-08-03T23:02:48.130Z,30.50
2022-08-03T23:06:01.276Z,27.25
2022-08-03T23:09:10.345Z,30.50
2022-08-03T23:12:18.398Z,32.75
2022-08-03T23:15:20.892Z,30.25
2022-08-03T23:18:24.180Z,29.75
2022-08-03T23:21:53.805Z,31.25
2022-08-03T23:24:51.351Z,32.00
2022-08-03T23:28:04.538Z,31.75
2022-08-03T23:31:08.707Z,29.75
2022-08-03T23:34:31.653Z,30.50
2022-08-03T23:38:21.622Z,32.25
2022-08-03T23:40:59.415Z,32.25
2022-08-03T23:44:03.651Z,29.50
2022-08-03T23:47:06.012Z,32.00
2022-08-03T23:50:08.520Z,32.25
2022-08-03T23:53:39.957Z,32.00
2022-08-03T23:56:51.666Z,35.00
